sensor_id;sensor_type;location;lat;lon;timestamp;temperature;humidity
8593;DHT22;4334;49.982;8.398;2022-08-19T00:10:19;22.30;99.90
8593;DHT22;4334;49.982;8.398;2022-08-19T00:15:17;22.30;99.90
8593;DHT22;4334;49.982;8.398;2022-08-19T00:49:48;22.20;99.90
8593;DHT22;4334;49.982;8.398;2022-08-19T00:52:20;22.10;99.90
8593;DHT22;4334;49.982;8.398;2022-08-19T00:54:49;22.10;99.90
8593;DHT22;4334;49.982;8.398;2022-08-19T00:57:20;22.10;99.90
8593;DHT22;4334;49.982;8.398;2022-08-19T00:59:51;22.00;99.90
8593;DHT22;4334;49.982;8.398;2022-08-19T01:12:10;21.90;99.90
8593;DHT22;4334;49.982;8.398;2022-08-19T01:27:03;21.90;99.90
8593;DHT22;4334;49.982;8.398;2022-08-19T01:39:22;21.90;99.90
8593;DHT22;4334;49.982;8.398;2022-08-19T01:41:51;21.90;99.90
8593;DHT22;4334;49.982;8.398;2022-08-19T01:44:20;21.80;99.90
8593;DHT22;4334;49.982;8.398;2022-08-19T01:46:50;21.70;99.90
8593;DHT22;4334;49.982;8.398;2022-08-19T01:49:19;21.70;99.90
8593;DHT22;4334;49.982;8.398;2022-08-19T01:51:46;21.70;99.90
8593;DHT22;4334;49.982;8.398;2022-08-19T01:54:15;21.60;99.90
8593;DHT22;4334;49.982;8.398;2022-08-19T01:56:42;21.60;99.90
8593;DHT22;4334;49.982;8.398;2022-08-19T01:59:13;21.60;99.90
8593;DHT22;4334;49.982;8.398;2022-08-19T02:01:40;21.50;99.90
8593;DHT22;4334;49.982;8.398;2022-08-19T02:06:35;21.50;99.90
8593;DHT22;4334;49.982;8.398;2022-08-19T02:09:03;26.60;99.90
8593;DHT22;4334;49.982;8.398;2022-08-19T02:11:32;21.50;99.90
8593;DHT22;4334;49.982;8.398;2022-08-19T02:14:00;21.60;99.90
8593;DHT22;4334;49.982;8.398;2022-08-19T02:16:30;21.60;99.90
8593;DHT22;4334;49.982;8.398;2022-08-19T02:18:57;22.00;99.90
8593;DHT22;4334;49.982;8.398;2022-08-19T02:21:26;21.60;99.90
8593;DHT22;4334;49.982;8.398;2022-08-19T02:23:53;21.50;99.90
8593;DHT22;4334;49.982;8.398;2022-08-19T02:26:20;21.60;99.90
8593;DHT22;4334;49.982;8.398;2022-08-19T02:28:47;21.80;99.90
8593;DHT22;4334;49.982;8.398;2022-08-19T02:31:17;21.60;99.90
8593;DHT22;4334;49.982;8.398;2022-08-19T02:33:46;21.60;99.90
8593;DHT22;4334;49.982;8.398;2022-08-19T02:36:15;21.60;99.90
8593;DHT22;4334;49.982;8.398;2022-08-19T02:38:42;21.50;99.90
8593;DHT22;4334;49.982;8.398;2022-08-19T02:41:12;21.50;99.90
8593;DHT22;4334;49.982;8.398;2022-08-19T02:43:40;21.50;99.90
8593;DHT22;4334;49.982;8.398;2022-08-19T02:46:13;21.50;99.90
8593;DHT22;4334;49.982;8.398;2022-08-19T02:48:40;25.40;99.90
8593;DHT22;4334;49.982;8.398;2022-08-19T02:51:08;21.50;99.90
8593;DHT22;4334;49.982;8.398;2022-08-19T02:53:34;24.70;99.90
8593;DHT22;4334;49.982;8.398;2022-08-19T02:56:06;23.70;99.90
8593;DHT22;4334;49.982;8.398;2022-08-19T02:58:33;21.40;99.90
8593;DHT22;4334;49.982;8.398;2022-08-19T03:01:00;21.40;99.90
8593;DHT22;4334;49.982;8.398;2022-08-19T03:03:27;21.40;99.90
8593;DHT22;4334;49.982;8.398;2022-08-19T03:06:08;21.40;99.90
8593;DHT22;4334;49.982;8.398;2022-08-19T03:11:03;21.30;99.90
8593;DHT22;4334;49.982;8.398;2022-08-19T03:13:30;21.30;99.90
8593;DHT22;4334;49.982;8.398;2022-08-19T03:15:57;21.30;99.90
8593;DHT22;4334;49.982;8.398;2022-08-19T03:18:23;21.20;99.90
8593;DHT22;4334;49.982;8.398;2022-08-19T03:20:51;21.20;99.90
8593;DHT22;4334;49.982;8.398;2022-08-19T03:23:21;21.20;99.90
8593;DHT22;4334;49.982;8.398;2022-08-19T03:25:49;21.20;99.90
8593;DHT22;4334;49.982;8.398;2022-08-19T03:28:16;21.10;99.90
8593;DHT22;4334;49.982;8.398;2022-08-19T03:30:55;19.60;99.90
8593;DHT22;4334;49.982;8.398;2022-08-19T03:33:24;21.00;99.90
8593;DHT22;4334;49.982;8.398;2022-08-19T03:36:06;21.00;99.90
8593;DHT22;4334;49.982;8.398;2022-08-19T03:38:37;21.00;99.90
8593;DHT22;4334;49.982;8.398;2022-08-19T03:41:06;20.90;99.90
8593;DHT22;4334;49.982;8.398;2022-08-19T03:43:34;20.90;99.90
8593;DHT22;4334;49.982;8.398;2022-08-19T03:46:04;20.90;99.90
8593;DHT22;4334;49.982;8.398;2022-08-19T03:48:32;20.90;99.90
8593;DHT22;4334;49.982;8.398;2022-08-19T03:51:00;23.00;99.90
8593;DHT22;4334;49.982;8.398;2022-08-19T03:53:28;20.90;99.90
8593;DHT22;4334;49.982;8.398;2022-08-19T03:55:57;20.80;99.90
8593;DHT22;4334;49.982;8.398;2022-08-19T03:58:25;20.80;99.90
8593;DHT22;4334;49.982;8.398;2022-08-19T04:00:53;20.80;99.90
8593;DHT22;4334;49.982;8.398;2022-08-19T04:03:20;20.80;99.90
8593;DHT22;4334;49.982;8.398;2022-08-19T04:05:46;20.70;99.90
8593;DHT22;4334;49.982;8.398;2022-08-19T04:08:14;20.70;99.90
8593;DHT22;4334;49.982;8.398;2022-08-19T04:10:44;20.70;99.90
8593;DHT22;4334;49.982;8.398;2022-08-19T04:13:12;20.60;99.90
8593;DHT22;4334;49.982;8.398;2022-08-19T04:15:40;20.50;99.90
8593;DHT22;4334;49.982;8.398;2022-08-19T04:18:07;20.50;99.90
8593;DHT22;4334;49.982;8.398;2022-08-19T04:20:39;20.50;99.90
8593;DHT22;4334;49.982;8.398;2022-08-19T04:25:38;20.50;99.90
8593;DHT22;4334;49.982;8.398;2022-08-19T04:30:39;18.30;99.90
8593;DHT22;4334;49.982;8.398;2022-08-19T04:35:38;20.50;99.90
8593;DHT22;4334;49.982;8.398;2022-08-19T04:38:06;20.70;99.90
8593;DHT22;4334;49.982;8.398;2022-08-19T04:40:34;20.60;99.90
8593;DHT22;4334;49.982;8.398;2022-08-19T04:45:46;20.60;99.90
8593;DHT22;4334;49.982;8.398;2022-08-19T04:50:41;20.60;99.90
8593;DHT22;4334;49.982;8.398;2022-08-19T04:53:09;20.70;99.90
8593;DHT22;4334;49.982;8.398;2022-08-19T04:55:39;20.80;99.90
8593;DHT22;4334;49.982;8.398;2022-08-19T05:03:02;21.00;99.90
8593;DHT22;4334;49.982;8.398;2022-08-19T05:05:29;21.10;99.90
8593;DHT22;4334;49.982;8.398;2022-08-19T05:10:24;21.20;99.90
8593;DHT22;4334;49.982;8.398;2022-08-19T05:12:50;21.30;99.90
8593;DHT22;4334;49.982;8.398;2022-08-19T05:15:17;21.40;99.90
8593;DHT22;4334;49.982;8.398;2022-08-19T05:17:44;21.40;99.90
8593;DHT22;4334;49.982;8.398;2022-08-19T05:20:32;21.50;99.90
8593;DHT22;4334;49.982;8.398;2022-08-19T05:25:44;21.80;99.90
8593;DHT22;4334;49.982;8.398;2022-08-19T05:28:10;21.80;99.90
8593;DHT22;4334;49.982;8.398;2022-08-19T05:30:37;21.90;99.90
8593;DHT22;4334;49.982;8.398;2022-08-19T05:33:07;22.20;99.90
8593;DHT22;4334;49.982;8.398;2022-08-19T05:35:39;25.90;99.90
8593;DHT22;4334;49.982;8.398;2022-08-19T05:38:07;22.50;99.90
8593;DHT22;4334;49.982;8.398;2022-08-19T05:40:34;22.30;99.90
8593;DHT22;4334;49.982;8.398;2022-08-19T05:43:02;22.40;99.90
8593;DHT22;4334;49.982;8.398;2022-08-19T05:45:29;21.20;99.90
8593;DHT22;4334;49.982;8.398;2022-08-19T05:47:56;22.80;99.90
8593;DHT22;4334;49.982;8.398;2022-08-19T05:50:24;23.10;99.90
8593;DHT22;4334;49.982;8.398;2022-08-19T05:52:53;23.30;99.90
8593;DHT22;4334;49.982;8.398;2022-08-19T05:55:19;23.20;99.90
8593;DHT22;4334;49.982;8.398;2022-08-19T05:57:48;22.90;99.90
8593;DHT22;4334;49.982;8.398;2022-08-19T06:00:15;25.50;99.90
8593;DHT22;4334;49.982;8.398;2022-08-19T06:02:42;22.50;99.90
8593;DHT22;4334;49.982;8.398;2022-08-19T06:05:09;23.80;99.90
8593;DHT22;4334;49.982;8.398;2022-08-19T06:07:37;22.50;99.90
8593;DHT22;4334;49.982;8.398;2022-08-19T06:10:08;22.80;99.90
8593;DHT22;4334;49.982;8.398;2022-08-19T06:12:35;23.00;99.90
8593;DHT22;4334;49.982;8.398;2022-08-19T06:15:05;27.90;99.90
8593;DHT22;4334;49.982;8.398;2022-08-19T06:17:32;23.40;99.90
8593;DHT22;4334;49.982;8.398;2022-08-19T06:20:00;23.50;99.90
8593;DHT22;4334;49.982;8.398;2022-08-19T06:22:27;23.70;99.90
8593;DHT22;4334;49.982;8.398;2022-08-19T06:24:55;24.30;99.90
8593;DHT22;4334;49.982;8.398;2022-08-19T06:27:23;27.70;99.90
8593;DHT22;4334;49.982;8.398;2022-08-19T06:29:50;23.20;99.90
8593;DHT22;4334;49.982;8.398;2022-08-19T06:32:17;23.30;99.90
8593;DHT22;4334;49.982;8.398;2022-08-19T06:34:44;26.10;99.90
8593;DHT22;4334;49.982;8.398;2022-08-19T06:37:11;25.00;99.90
8593;DHT22;4334;49.982;8.398;2022-08-19T06:39:40;24.80;99.90
8593;DHT22;4334;49.982;8.398;2022-08-19T06:42:08;25.20;99.90
8593;DHT22;4334;49.982;8.398;2022-08-19T06:44:44;25.10;99.90
8593;DHT22;4334;49.982;8.398;2022-08-19T06:47:13;25.20;99.90
8593;DHT22;4334;49.982;8.398;2022-08-19T06:49:41;25.80;99.90
8593;DHT22;4334;49.982;8.398;2022-08-19T06:52:08;26.10;99.90
8593;DHT22;4334;49.982;8.398;2022-08-19T06:54:37;26.00;99.90
8593;DHT22;4334;49.982;8.398;2022-08-19T06:57:05;25.70;99.90
8593;DHT22;4334;49.982;8.398;2022-08-19T06:59:32;28.20;99.90
8593;DHT22;4334;49.982;8.398;2022-08-19T07:02:03;25.60;99.90
8593;DHT22;4334;49.982;8.398;2022-08-19T07:04:31;25.90;99.90
8593;DHT22;4334;49.982;8.398;2022-08-19T07:07:00;25.90;99.90
8593;DHT22;4334;49.982;8.398;2022-08-19T07:09:27;29.80;99.90
8593;DHT22;4334;49.982;8.398;2022-08-19T07:11:55;26.10;99.90
8593;DHT22;4334;49.982;8.398;2022-08-19T07:14:24;26.00;99.90
8593;DHT22;4334;49.982;8.398;2022-08-19T07:16:53;26.10;99.90
8593;DHT22;4334;49.982;8.398;2022-08-19T07:19:24;26.40;99.90
8593;DHT22;4334;49.982;8.398;2022-08-19T07:21:52;26.70;99.90
8593;DHT22;4334;49.982;8.398;2022-08-19T07:24:20;27.10;99.90
8593;DHT22;4334;49.982;8.398;2022-08-19T07:26:50;27.30;99.90
8593;DHT22;4334;49.982;8.398;2022-08-19T07:29:18;26.30;99.90
8593;DHT22;4334;49.982;8.398;2022-08-19T07:31:48;26.10;99.90
8593;DHT22;4334;49.982;8.398;2022-08-19T07:34:15;26.50;99.90
8593;DHT22;4334;49.982;8.398;2022-08-19T07:36:44;26.80;99.90
8593;DHT22;4334;49.982;8.398;2022-08-19T07:39:13;28.30;99.90
8593;DHT22;4334;49.982;8.398;2022-08-19T07:41:40;27.00;99.90
8593;DHT22;4334;49.982;8.398;2022-08-19T07:44:09;28.20;99.90
8593;DHT22;4334;49.982;8.398;2022-08-19T07:46:39;27.00;99.90
8593;DHT22;4334;49.982;8.398;2022-08-19T07:49:07;27.10;99.90
8593;DHT22;4334;49.982;8.398;2022-08-19T07:51:38;27.40;99.90
8593;DHT22;4334;49.982;8.398;2022-08-19T07:54:06;27.70;99.90
8593;DHT22;4334;49.982;8.398;2022-08-19T07:56:33;30.30;99.90
8593;DHT22;4334;49.982;8.398;2022-08-19T07:59:00;28.00;99.90
8593;DHT22;4334;49.982;8.398;2022-08-19T08:01:27;27.90;99.90
8593;DHT22;4334;49.982;8.398;2022-08-19T08:03:56;29.10;99.90
8593;DHT22;4334;49.982;8.398;2022-08-19T08:06:40;28.30;99.90
8593;DHT22;4334;49.982;8.398;2022-08-19T08:09:30;28.70;99.90
8593;DHT22;4334;49.982;8.398;2022-08-19T08:11:59;28.80;99.90
8593;DHT22;4334;49.982;8.398;2022-08-19T08:14:29;28.70;99.90
8593;DHT22;4334;49.982;8.398;2022-08-19T08:16:57;28.10;99.90
8593;DHT22;4334;49.982;8.398;2022-08-19T08:19:26;30.50;99.90
8593;DHT22;4334;49.982;8.398;2022-08-19T08:21:54;28.40;99.90
8593;DHT22;4334;49.982;8.398;2022-08-19T08:24:21;28.30;99.90
8593;DHT22;4334;49.982;8.398;2022-08-19T08:26:49;30.30;99.90
8593;DHT22;4334;49.982;8.398;2022-08-19T08:29:16;27.40;99.90
8593;DHT22;4334;49.982;8.398;2022-08-19T08:31:44;29.70;99.90
8593;DHT22;4334;49.982;8.398;2022-08-19T08:34:12;28.00;99.90
8593;DHT22;4334;49.982;8.398;2022-08-19T08:36:42;28.30;99.90
8593;DHT22;4334;49.982;8.398;2022-08-19T08:39:11;32.10;99.90
8593;DHT22;4334;49.982;8.398;2022-08-19T08:41:44;28.80;99.90
8593;DHT22;4334;49.982;8.398;2022-08-19T08:44:17;30.40;99.90
8593;DHT22;4334;49.982;8.398;2022-08-19T08:46:48;31.80;99.90
8593;DHT22;4334;49.982;8.398;2022-08-19T08:49:24;30.30;99.90
8593;DHT22;4334;49.982;8.398;2022-08-19T08:51:59;31.10;98.80
8593;DHT22;4334;49.982;8.398;2022-08-19T08:54:32;31.00;98.60
8593;DHT22;4334;49.982;8.398;2022-08-19T08:56:59;30.90;99.10
8593;DHT22;4334;49.982;8.398;2022-08-19T08:59:30;31.40;97.50
8593;DHT22;4334;49.982;8.398;2022-08-19T09:01:58;31.30;96.80
8593;DHT22;4334;49.982;8.398;2022-08-19T09:04:25;31.30;96.70
8593;DHT22;4334;49.982;8.398;2022-08-19T09:06:56;31.40;97.00
8593;DHT22;4334;49.982;8.398;2022-08-19T09:09:32;30.70;96.80
8593;DHT22;4334;49.982;8.398;2022-08-19T09:12:05;30.30;97.60
8593;DHT22;4334;49.982;8.398;2022-08-19T09:14:42;30.00;98.30
8593;DHT22;4334;49.982;8.398;2022-08-19T09:17:11;30.20;97.40
8593;DHT22;4334;49.982;8.398;2022-08-19T09:19:49;30.10;97.50
8593;DHT22;4334;49.982;8.398;2022-08-19T09:29:41;30.10;96.50
8593;DHT22;4334;49.982;8.398;2022-08-19T10:04:07;30.50;95.20
8593;DHT22;4334;49.982;8.398;2022-08-19T10:06:36;30.60;94.80
8593;DHT22;4334;49.982;8.398;2022-08-19T10:21:25;30.70;93.80
8593;DHT22;4334;49.982;8.398;2022-08-19T10:23:55;31.00;93.30
8593;DHT22;4334;49.982;8.398;2022-08-19T10:26:25;30.80;92.50
8593;DHT22;4334;49.982;8.398;2022-08-19T10:31:23;30.70;93.20
8593;DHT22;4334;49.982;8.398;2022-08-19T10:33:51;30.70;92.70
8593;DHT22;4334;49.982;8.398;2022-08-19T10:36:26;30.60;93.10
8593;DHT22;4334;49.982;8.398;2022-08-19T10:38:55;30.80;93.60
8593;DHT22;4334;49.982;8.398;2022-08-19T10:41:25;31.40;91.00
8593;DHT22;4334;49.982;8.398;2022-08-19T10:43:53;31.20;91.30
8593;DHT22;4334;49.982;8.398;2022-08-19T10:46:22;31.40;91.70
8593;DHT22;4334;49.982;8.398;2022-08-19T10:48:50;31.10;92.00
8593;DHT22;4334;49.982;8.398;2022-08-19T10:51:17;31.10;92.10
8593;DHT22;4334;49.982;8.398;2022-08-19T10:54:03;31.60;90.60
8593;DHT22;4334;49.982;8.398;2022-08-19T10:56:31;31.70;90.20
8593;DHT22;4334;49.982;8.398;2022-08-19T10:59:18;31.60;90.00
8593;DHT22;4334;49.982;8.398;2022-08-19T11:01:45;31.60;90.00
8593;DHT22;4334;49.982;8.398;2022-08-19T11:09:10;30.80;91.40
8593;DHT22;4334;49.982;8.398;2022-08-19T11:14:06;30.10;91.90
8593;DHT22;4334;49.982;8.398;2022-08-19T11:16:33;30.10;92.20
8593;DHT22;4334;49.982;8.398;2022-08-19T11:21:30;31.60;86.20
8593;DHT22;4334;49.982;8.398;2022-08-19T11:23:58;32.10;85.40
8593;DHT22;4334;49.982;8.398;2022-08-19T11:26:28;32.10;83.50
8593;DHT22;4334;49.982;8.398;2022-08-19T11:28:56;32.10;83.50
8593;DHT22;4334;49.982;8.398;2022-08-19T11:31:26;32.80;82.40
8593;DHT22;4334;49.982;8.398;2022-08-19T11:33:55;32.90;81.30
8593;DHT22;4334;49.982;8.398;2022-08-19T11:38:49;32.60;82.70
8593;DHT22;4334;49.982;8.398;2022-08-19T11:41:18;32.70;83.50
8593;DHT22;4334;49.982;8.398;2022-08-19T11:43:46;33.10;77.80
8593;DHT22;4334;49.982;8.398;2022-08-19T11:46:14;32.30;79.20
8593;DHT22;4334;49.982;8.398;2022-08-19T11:51:11;32.30;79.90
8593;DHT22;4334;49.982;8.398;2022-08-19T11:53:38;33.00;78.40
8593;DHT22;4334;49.982;8.398;2022-08-19T11:56:07;33.10;78.90
8593;DHT22;4334;49.982;8.398;2022-08-19T11:58:34;33.60;77.50
8593;DHT22;4334;49.982;8.398;2022-08-19T12:01:05;33.00;75.50
8593;DHT22;4334;49.982;8.398;2022-08-19T12:06:03;32.40;76.70
8593;DHT22;4334;49.982;8.398;2022-08-19T12:08:30;33.20;74.80
8593;DHT22;4334;49.982;8.398;2022-08-19T12:10:56;33.30;75.30
8593;DHT22;4334;49.982;8.398;2022-08-19T12:13:23;32.90;72.90
8593;DHT22;4334;49.982;8.398;2022-08-19T12:15:50;33.10;72.00
8593;DHT22;4334;49.982;8.398;2022-08-19T12:18:19;32.90;72.10
8593;DHT22;4334;49.982;8.398;2022-08-19T12:20:45;32.90;71.20
8593;DHT22;4334;49.982;8.398;2022-08-19T12:25:44;32.20;73.60
8593;DHT22;4334;49.982;8.398;2022-08-19T12:35:40;32.40;72.10
8593;DHT22;4334;49.982;8.398;2022-08-19T12:40:34;32.50;71.80
8593;DHT22;4334;49.982;8.398;2022-08-19T13:00:16;30.80;73.00
8593;DHT22;4334;49.982;8.398;2022-08-19T13:02:45;30.00;75.90
8593;DHT22;4334;49.982;8.398;2022-08-19T13:05:16;30.00;75.90
8593;DHT22;4334;49.982;8.398;2022-08-19T13:10:16;31.40;73.30
8593;DHT22;4334;49.982;8.398;2022-08-19T13:12:46;31.90;71.40
8593;DHT22;4334;49.982;8.398;2022-08-19T13:20:15;30.70;73.70
8593;DHT22;4334;49.982;8.398;2022-08-19T13:27:41;31.10;73.10
8593;DHT22;4334;49.982;8.398;2022-08-19T13:30:10;30.80;72.80
8593;DHT22;4334;49.982;8.398;2022-08-19T13:35:44;29.50;76.30
8593;DHT22;4334;49.982;8.398;2022-08-19T13:43:08;29.70;76.30
8593;DHT22;4334;49.982;8.398;2022-08-19T14:00:25;29.20;77.50
8593;DHT22;4334;49.982;8.398;2022-08-19T14:15:11;29.80;75.70
8593;DHT22;4334;49.982;8.398;2022-08-19T14:17:42;29.40;77.10
8593;DHT22;4334;49.982;8.398;2022-08-19T14:20:11;28.90;77.80
8593;DHT22;4334;49.982;8.398;2022-08-19T14:22:39;28.70;77.30
8593;DHT22;4334;49.982;8.398;2022-08-19T14:25:09;29.10;77.30
8593;DHT22;4334;49.982;8.398;2022-08-19T14:27:37;29.10;77.90
8593;DHT22;4334;49.982;8.398;2022-08-19T14:30:07;32.30;77.80
8593;DHT22;4334;49.982;8.398;2022-08-19T14:32:34;31.50;74.00
8593;DHT22;4334;49.982;8.398;2022-08-19T14:35:03;26.70;70.60
8593;DHT22;4334;49.982;8.398;2022-08-19T14:37:33;30.30;75.80
8593;DHT22;4334;49.982;8.398;2022-08-19T14:40:00;30.30;77.00
8593;DHT22;4334;49.982;8.398;2022-08-19T14:42:27;31.60;75.40
8593;DHT22;4334;49.982;8.398;2022-08-19T14:44:57;32.30;71.70
8593;DHT22;4334;49.982;8.398;2022-08-19T14:47:24;32.50;70.80
8593;DHT22;4334;49.982;8.398;2022-08-19T14:49:52;36.30;73.40
8593;DHT22;4334;49.982;8.398;2022-08-19T14:52:20;33.00;69.60
8593;DHT22;4334;49.982;8.398;2022-08-19T14:54:47;33.60;67.50
8593;DHT22;4334;49.982;8.398;2022-08-19T14:57:14;33.30;66.40
8593;DHT22;4334;49.982;8.398;2022-08-19T14:59:41;33.10;66.30
8593;DHT22;4334;49.982;8.398;2022-08-19T15:02:08;37.30;70.20
8593;DHT22;4334;49.982;8.398;2022-08-19T15:04:35;32.70;66.20
8593;DHT22;4334;49.982;8.398;2022-08-19T15:07:02;32.90;65.90
8593;DHT22;4334;49.982;8.398;2022-08-19T15:09:31;31.90;66.30
8593;DHT22;4334;49.982;8.398;2022-08-19T15:11:57;31.30;68.20
8593;DHT22;4334;49.982;8.398;2022-08-19T15:14:25;31.10;69.20
8593;DHT22;4334;49.982;8.398;2022-08-19T15:16:52;30.90;69.90
8593;DHT22;4334;49.982;8.398;2022-08-19T15:19:20;31.20;69.80
8593;DHT22;4334;49.982;8.398;2022-08-19T15:21:46;31.90;69.90
8593;DHT22;4334;49.982;8.398;2022-08-19T15:24:14;32.70;67.70
8593;DHT22;4334;49.982;8.398;2022-08-19T15:26:43;33.30;67.50
8593;DHT22;4334;49.982;8.398;2022-08-19T15:29:10;33.70;67.00
8593;DHT22;4334;49.982;8.398;2022-08-19T15:31:40;33.90;66.00
8593;DHT22;4334;49.982;8.398;2022-08-19T15:34:07;34.90;63.50
8593;DHT22;4334;49.982;8.398;2022-08-19T15:36:34;35.20;64.10
8593;DHT22;4334;49.982;8.398;2022-08-19T15:39:02;34.50;62.30
8593;DHT22;4334;49.982;8.398;2022-08-19T15:41:30;34.30;64.30
8593;DHT22;4334;49.982;8.398;2022-08-19T15:44:00;34.60;63.70
8593;DHT22;4334;49.982;8.398;2022-08-19T15:46:30;34.30;63.70
8593;DHT22;4334;49.982;8.398;2022-08-19T15:48:58;33.60;64.10
8593;DHT22;4334;49.982;8.398;2022-08-19T15:51:27;33.30;65.10
8593;DHT22;4334;49.982;8.398;2022-08-19T15:53:55;33.60;65.80
8593;DHT22;4334;49.982;8.398;2022-08-19T15:56:22;33.80;64.70
8593;DHT22;4334;49.982;8.398;2022-08-19T15:58:48;33.50;64.00
8593;DHT22;4334;49.982;8.398;2022-08-19T16:01:34;32.60;66.00
8593;DHT22;4334;49.982;8.398;2022-08-19T16:04:18;33.00;65.40
8593;DHT22;4334;49.982;8.398;2022-08-19T16:07:03;33.10;65.50
8593;DHT22;4334;49.982;8.398;2022-08-19T16:09:36;32.60;66.20
8593;DHT22;4334;49.982;8.398;2022-08-19T16:12:04;32.20;66.30
8593;DHT22;4334;49.982;8.398;2022-08-19T16:14:33;31.90;67.20
8593;DHT22;4334;49.982;8.398;2022-08-19T16:17:01;32.00;67.30
8593;DHT22;4334;49.982;8.398;2022-08-19T16:19:29;31.90;68.20
8593;DHT22;4334;49.982;8.398;2022-08-19T16:21:56;32.10;67.40
8593;DHT22;4334;49.982;8.398;2022-08-19T16:24:25;32.40;67.70
8593;DHT22;4334;49.982;8.398;2022-08-19T16:26:53;32.20;66.80
8593;DHT22;4334;49.982;8.398;2022-08-19T16:29:20;35.50;71.50
8593;DHT22;4334;49.982;8.398;2022-08-19T16:31:48;31.50;68.40
8593;DHT22;4334;49.982;8.398;2022-08-19T16:34:16;31.50;67.40
8593;DHT22;4334;49.982;8.398;2022-08-19T16:36:43;32.20;69.30
8593;DHT22;4334;49.982;8.398;2022-08-19T16:39:11;31.40;68.30
8593;DHT22;4334;49.982;8.398;2022-08-19T16:41:39;31.30;68.40
8593;DHT22;4334;49.982;8.398;2022-08-19T16:44:08;31.00;69.20
8593;DHT22;4334;49.982;8.398;2022-08-19T16:46:35;31.30;68.90
8593;DHT22;4334;49.982;8.398;2022-08-19T16:49:03;31.10;68.90
8593;DHT22;4334;49.982;8.398;2022-08-19T16:51:31;31.20;69.50
8593;DHT22;4334;49.982;8.398;2022-08-19T16:53:59;31.20;69.40
8593;DHT22;4334;49.982;8.398;2022-08-19T16:56:26;31.30;68.80
8593;DHT22;4334;49.982;8.398;2022-08-19T16:58:53;31.10;69.20
8593;DHT22;4334;49.982;8.398;2022-08-19T17:01:20;30.70;69.10
8593;DHT22;4334;49.982;8.398;2022-08-19T17:03:47;30.60;69.30
8593;DHT22;4334;49.982;8.398;2022-08-19T17:06:16;30.50;69.90
8593;DHT22;4334;49.982;8.398;2022-08-19T17:08:45;30.40;70.50
8593;DHT22;4334;49.982;8.398;2022-08-19T17:11:12;30.30;70.10
8593;DHT22;4334;49.982;8.398;2022-08-19T17:13:39;30.20;70.30
8593;DHT22;4334;49.982;8.398;2022-08-19T17:16:06;30.10;70.30
8593;DHT22;4334;49.982;8.398;2022-08-19T17:21:00;30.10;70.00
8593;DHT22;4334;49.982;8.398;2022-08-19T17:23:27;30.30;70.30
8593;DHT22;4334;49.982;8.398;2022-08-19T17:25:55;30.30;70.80
8593;DHT22;4334;49.982;8.398;2022-08-19T17:28:25;30.40;70.40
8593;DHT22;4334;49.982;8.398;2022-08-19T17:30:52;30.40;69.70
8593;DHT22;4334;49.982;8.398;2022-08-19T17:33:19;30.50;68.90
8593;DHT22;4334;49.982;8.398;2022-08-19T17:35:46;30.50;69.60
8593;DHT22;4334;49.982;8.398;2022-08-19T17:38:15;30.30;69.70
8593;DHT22;4334;49.982;8.398;2022-08-19T17:40:42;29.90;69.90
8593;DHT22;4334;49.982;8.398;2022-08-19T17:43:12;29.90;70.30
8593;DHT22;4334;49.982;8.398;2022-08-19T17:45:40;30.00;69.80
8593;DHT22;4334;49.982;8.398;2022-08-19T17:48:08;29.90;69.50
8593;DHT22;4334;49.982;8.398;2022-08-19T17:50:37;29.70;70.30
8593;DHT22;4334;49.982;8.398;2022-08-19T17:53:05;29.50;70.20
8593;DHT22;4334;49.982;8.398;2022-08-19T17:55:32;29.50;70.40
8593;DHT22;4334;49.982;8.398;2022-08-19T17:58:01;29.10;70.60
8593;DHT22;4334;49.982;8.398;2022-08-19T18:00:31;32.00;73.40
8593;DHT22;4334;49.982;8.398;2022-08-19T18:03:00;29.10;71.90
8593;DHT22;4334;49.982;8.398;2022-08-19T18:05:30;28.90;71.70
8593;DHT22;4334;49.982;8.398;2022-08-19T18:07:58;28.20;72.40
8593;DHT22;4334;49.982;8.398;2022-08-19T18:10:28;27.90;73.20
8593;DHT22;4334;49.982;8.398;2022-08-19T18:12:57;27.70;73.80
8593;DHT22;4334;49.982;8.398;2022-08-19T18:15:24;27.60;74.00
8593;DHT22;4334;49.982;8.398;2022-08-19T18:17:52;27.50;74.20
8593;DHT22;4334;49.982;8.398;2022-08-19T18:20:19;27.40;74.80
8593;DHT22;4334;49.982;8.398;2022-08-19T18:22:47;27.30;75.60
8593;DHT22;4334;49.982;8.398;2022-08-19T18:25:16;27.10;75.70
8593;DHT22;4334;49.982;8.398;2022-08-19T18:27:44;27.20;76.30
8593;DHT22;4334;49.982;8.398;2022-08-19T18:35:13;26.80;77.30
8593;DHT22;4334;49.982;8.398;2022-08-19T18:37:41;26.80;77.50
8593;DHT22;4334;49.982;8.398;2022-08-19T18:40:11;26.80;78.20
8593;DHT22;4334;49.982;8.398;2022-08-19T18:43:14;26.70;78.00
8593;DHT22;4334;49.982;8.398;2022-08-19T18:51:28;26.40;79.60
8593;DHT22;4334;49.982;8.398;2022-08-19T18:56:25;26.20;79.70
8593;DHT22;4334;49.982;8.398;2022-08-19T19:01:25;26.10;80.10
8593;DHT22;4334;49.982;8.398;2022-08-19T19:03:53;26.00;80.20
8593;DHT22;4334;49.982;8.398;2022-08-19T19:06:22;26.00;80.40
8593;DHT22;4334;49.982;8.398;2022-08-19T19:08:52;25.90;80.60
8593;DHT22;4334;49.982;8.398;2022-08-19T19:11:22;25.90;80.40
8593;DHT22;4334;49.982;8.398;2022-08-19T19:26:08;25.40;82.00
8593;DHT22;4334;49.982;8.398;2022-08-19T19:28:36;25.30;82.30
8593;DHT22;4334;49.982;8.398;2022-08-19T19:31:04;25.20;82.80
8593;DHT22;4334;49.982;8.398;2022-08-19T19:40:52;25.10;84.60
8593;DHT22;4334;49.982;8.398;2022-08-19T19:43:20;25.00;85.00
8593;DHT22;4334;49.982;8.398;2022-08-19T20:00:32;24.30;88.10
8593;DHT22;4334;49.982;8.398;2022-08-19T20:07:54;24.10;89.80
8593;DHT22;4334;49.982;8.398;2022-08-19T20:10:41;24.20;89.80
8593;DHT22;4334;49.982;8.398;2022-08-19T20:13:09;24.10;90.10
8593;DHT22;4334;49.982;8.398;2022-08-19T20:15:37;24.00;90.20
8593;DHT22;4334;49.982;8.398;2022-08-19T20:18:08;24.00;90.40
8593;DHT22;4334;49.982;8.398;2022-08-19T20:20:35;24.00;90.50
8593;DHT22;4334;49.982;8.398;2022-08-19T20:32:54;24.20;90.70
8593;DHT22;4334;49.982;8.398;2022-08-19T21:07:23;23.90;92.70
8593;DHT22;4334;49.982;8.398;2022-08-19T21:34:29;23.40;95.50
8593;DHT22;4334;49.982;8.398;2022-08-19T21:46:45;23.20;95.70
8593;DHT22;4334;49.982;8.398;2022-08-19T21:49:12;23.30;96.00
8593;DHT22;4334;49.982;8.398;2022-08-19T21:56:33;23.30;96.30
8593;DHT22;4334;49.982;8.398;2022-08-19T21:59:01;23.30;96.40
8593;DHT22;4334;49.982;8.398;2022-08-19T22:13:46;23.50;97.10
8593;DHT22;4334;49.982;8.398;2022-08-19T22:30:59;23.20;99.80
8593;DHT22;4334;49.982;8.398;2022-08-19T22:33:28;23.20;99.90
8593;DHT22;4334;49.982;8.398;2022-08-19T22:48:19;23.50;99.90
8593;DHT22;4334;49.982;8.398;2022-08-19T23:03:18;23.20;99.90
8593;DHT22;4334;49.982;8.398;2022-08-19T23:18:03;23.00;99.90
8593;DHT22;4334;49.982;8.398;2022-08-19T23:33:15;22.80;99.90
8593;DHT22;4334;49.982;8.398;2022-08-19T23:40:41;22.70;99.90
8593;DHT22;4334;49.982;8.398;2022-08-19T23:55:28;22.40;99.90
